Portada
METAR-TAF:

METAR-TAF

Aeroports :

Plataforma petroliera

K14-fa-1c, Països Baixos

latitud: 53-16-10N, longitud: 3-37-40E, altitud: 28 m

Observació

L'informe es va fer fa 17 minuts, a les 10:25 UTC
Vent 22 kt del Nord/Nord-Est
Temperatura 7°C
Humitat 70%
Pressió 1021 hPa
Visibilitat 10 km o més
Escasses núvols a una alçada de 4600 ft

METAR: EHKV 211025Z AUTO 02022KT 9999 FEW046 07/02 Q1021

Hora: 12:42 (10:42 UTC)


TAF: manca

Observacions i pronòstics meteorològics de més de 4000 aeroports (METAR i TAF).

Les estacions disponibles són els punts grocs i vermells al mapa.

Posi el ratolí al punt desitjat per veure el nom de l'estació.

Feu clic per veure les observacions i els pronòstics meteorològics.

Per canviar el mapa: feu clic els botons verds amb una creu de color negre per apropar; al botó verd amb un guió per allunyar la imatge; o en les fletxes verdes per a mapes adjacents.


METAR-TAF: